createdAt,value
2023-01-06T00:00:02.368Z,99.7
2023-01-06T00:15:02.784Z,99.8
2023-01-06T00:30:02.267Z,99.9
2023-01-06T00:45:02.666Z,99.9
2023-01-06T01:00:03.249Z,100.0
2023-01-06T01:15:02.534Z,100.0
2023-01-06T01:30:02.975Z,100.0
2023-01-06T01:45:02.406Z,100.0
2023-01-06T02:00:02.840Z,100.0
2023-01-06T02:15:02.272Z,100.0
2023-01-06T02:30:02.711Z,100.0
2023-01-06T02:45:03.303Z,99.9
2023-01-06T03:00:02.580Z,100.0
2023-01-06T03:15:03.010Z,99.8
2023-01-06T03:30:02.452Z,99.7
2023-01-06T03:45:02.905Z,99.5
2023-01-06T04:00:02.330Z,99.3
2023-01-06T04:15:02.770Z,98.9
2023-01-06T04:30:02.309Z,98.2
2023-01-06T04:45:02.647Z,97.5
2023-01-06T05:00:03.317Z,97.2
2023-01-06T05:15:02.521Z,97.1
2023-01-06T05:30:02.971Z,96.7
2023-01-06T05:45:02.416Z,96.0
2023-01-06T06:00:02.836Z,94.6
2023-01-06T06:15:03.339Z,92.6
2023-01-06T06:30:02.723Z,90.4
2023-01-06T06:45:03.351Z,89.1
2023-01-06T07:00:02.602Z,88.4
2023-01-06T07:15:03.058Z,87.9
2023-01-06T07:30:02.453Z,88.0
2023-01-06T07:45:02.918Z,87.9
2023-01-06T08:00:02.355Z,87.5
2023-01-06T08:15:02.790Z,89.5
2023-01-06T08:30:02.350Z,91.2
2023-01-06T08:45:02.645Z,91.7
2023-01-06T09:00:03.094Z,92.7
2023-01-06T09:15:02.512Z,94.2
2023-01-06T09:30:02.964Z,95.2
2023-01-06T09:45:02.417Z,96.0
2023-01-06T10:00:02.824Z,96.9
2023-01-06T10:15:03.401Z,97.0
2023-01-06T10:30:02.685Z,97.1
2023-01-06T10:45:03.145Z,96.8
2023-01-06T11:00:02.567Z,96.2
2023-01-06T11:15:03.026Z,94.7
2023-01-06T11:30:02.465Z,92.5
2023-01-06T11:45:02.876Z,90.7
2023-01-06T12:00:02.460Z,86.0
2023-01-06T12:15:03.523Z,84.1
2023-01-06T12:30:03.459Z,81.7
2023-01-06T12:45:02.607Z,79.8
2023-01-06T13:00:03.070Z,78.8
2023-01-06T13:15:02.521Z,75.8
2023-01-06T13:30:02.990Z,74.6
2023-01-06T13:45:02.452Z,75.0
2023-01-06T14:00:02.853Z,75.7
2023-01-06T14:15:02.433Z,74.7
2023-01-06T14:30:02.739Z,74.0
2023-01-06T14:45:03.170Z,74.9
2023-01-06T15:00:02.630Z,73.9
2023-01-06T15:15:03.041Z,74.6
2023-01-06T15:30:02.512Z,75.6
2023-01-06T15:45:02.939Z,77.3
2023-01-06T16:00:02.560Z,78.0
2023-01-06T16:15:02.791Z,78.7
2023-01-06T16:30:02.399Z,78.9
2023-01-06T16:45:02.698Z,80.0
2023-01-06T17:00:03.108Z,81.6
2023-01-06T17:15:02.537Z,82.6
2023-01-06T17:30:02.978Z,84.1
2023-01-06T17:45:02.505Z,85.2
2023-01-06T18:00:02.844Z,86.8
2023-01-06T18:15:02.441Z,87.3
2023-01-06T18:30:02.729Z,88.3
2023-01-06T18:45:03.179Z,88.9
2023-01-06T19:00:02.579Z,90.5
2023-01-06T19:15:03.040Z,92.7
2023-01-06T19:30:02.526Z,93.8
2023-01-06T19:45:02.904Z,94.9
2023-01-06T20:00:02.533Z,95.4
2023-01-06T20:15:04.406Z,95.7
2023-01-06T20:30:02.231Z,95.7
2023-01-06T20:45:02.660Z,95.5
2023-01-06T21:00:03.108Z,95.7
2023-01-06T21:15:02.573Z,95.8
2023-01-06T21:30:02.957Z,95.8
2023-01-06T21:45:02.557Z,96.2
2023-01-06T22:00:02.817Z,96.7
2023-01-06T22:15:03.273Z,97.2
2023-01-06T22:30:02.687Z,97.8
2023-01-06T22:45:03.147Z,98.2
2023-01-06T23:00:02.708Z,98.6
2023-01-06T23:15:02.028Z,98.9
2023-01-06T23:30:02.595Z,99.2
2023-01-06T23:45:02.916Z,99.5
